createdAt,value
2023-01-19T00:00:32.608Z,3.10
2023-01-19T00:02:59.678Z,2.72
2023-01-19T00:05:26.474Z,3.25
2023-01-19T00:07:53.120Z,3.40
2023-01-19T00:10:20.257Z,3.30
2023-01-19T00:12:47.044Z,3.20
2023-01-19T00:15:13.718Z,3.22
2023-01-19T00:17:41.274Z,3.92
2023-01-19T00:20:09.851Z,4.18
2023-01-19T00:22:36.612Z,3.13
2023-01-19T00:25:03.831Z,4.30
2023-01-19T00:27:34.954Z,3.40
2023-01-19T00:30:02.182Z,3.42
2023-01-19T00:32:29.109Z,3.20
2023-01-19T00:34:55.836Z,3.53
2023-01-19T00:37:22.594Z,2.90
2023-01-19T00:39:49.461Z,4.20
2023-01-19T00:42:34.742Z,3.28
2023-01-19T00:45:03.052Z,3.53
2023-01-19T00:47:29.934Z,2.85
2023-01-19T00:49:56.558Z,2.55
2023-01-19T00:52:23.395Z,2.50
2023-01-19T00:54:50.335Z,3.58
2023-01-19T00:57:19.185Z,2.90
2023-01-19T00:59:46.174Z,3.10
2023-01-19T01:02:13.581Z,2.65
2023-01-19T01:04:40.637Z,2.67
2023-01-19T01:07:07.748Z,3.55
2023-01-19T01:09:34.498Z,3.17
2023-01-19T01:12:01.200Z,2.83
2023-01-19T01:14:28.292Z,2.50
2023-01-19T01:16:55.600Z,2.67
2023-01-19T01:19:22.405Z,2.72
2023-01-19T01:21:49.282Z,2.60
2023-01-19T01:24:16.373Z,2.70
2023-01-19T01:26:43.016Z,2.42
2023-01-19T01:29:10.209Z,2.70
2023-01-19T01:31:37.186Z,2.38
2023-01-19T01:34:04.028Z,2.78
2023-01-19T01:36:33.585Z,2.58
2023-01-19T01:39:00.535Z,2.83
2023-01-19T01:41:27.599Z,3.03
2023-01-19T01:43:58.796Z,4.57
2023-01-19T01:46:27.750Z,3.10
2023-01-19T01:49:17.450Z,3.95
2023-01-19T01:51:48.451Z,2.63
2023-01-19T01:54:23.431Z,2.88
2023-01-19T01:56:52.646Z,3.15
2023-01-19T01:59:40.272Z,2.65
2023-01-19T02:02:37.624Z,2.22
2023-01-19T02:05:30.243Z,2.42
2023-01-19T02:09:00.136Z,1.88
2023-01-19T02:11:46.720Z,1.90
2023-01-19T02:14:13.509Z,2.28
2023-01-19T02:16:40.356Z,2.33
2023-01-19T02:19:13.259Z,2.25
2023-01-19T02:21:49.669Z,2.50
2023-01-19T02:24:16.482Z,1.40
2023-01-19T02:26:46.945Z,1.50
2023-01-19T02:29:16.752Z,1.58
2023-01-19T02:31:45.607Z,1.48
2023-01-19T02:34:16.231Z,1.65
2023-01-19T02:36:50.678Z,1.13
2023-01-19T02:39:20.964Z,1.67
2023-01-19T02:41:54.086Z,1.15
2023-01-19T02:44:23.585Z,1.65
2023-01-19T02:46:53.340Z,1.20
2023-01-19T02:49:20.149Z,1.20
2023-01-19T02:51:46.958Z,1.10
2023-01-19T02:54:39.953Z,1.58
2023-01-19T02:57:18.262Z,1.17
2023-01-19T03:00:03.387Z,1.33
2023-01-19T03:02:47.829Z,1.80
2023-01-19T03:05:34.448Z,1.25
2023-01-19T03:08:33.958Z,1.52
2023-01-19T03:11:06.017Z,1.90
2023-01-19T03:13:56.687Z,1.92
2023-01-19T03:16:45.844Z,1.38
2023-01-19T03:19:41.390Z,1.25
2023-01-19T03:22:13.637Z,1.90
2023-01-19T03:24:43.455Z,1.75
2023-01-19T03:27:33.874Z,1.77
2023-01-19T03:30:09.625Z,1.65
2023-01-19T03:32:41.462Z,1.27
2023-01-19T03:35:11.888Z,1.80
2023-01-19T03:37:43.326Z,2.55
2023-01-19T03:40:11.946Z,1.45
2023-01-19T03:42:41.203Z,1.20
2023-01-19T03:45:09.420Z,1.70
2023-01-19T03:47:36.712Z,2.13
2023-01-19T03:50:09.363Z,1.42
2023-01-19T03:52:36.081Z,1.42
2023-01-19T03:55:05.710Z,1.40
2023-01-19T03:57:32.724Z,1.30
2023-01-19T03:59:59.471Z,1.20
2023-01-19T04:02:26.266Z,1.50
2023-01-19T04:04:53.102Z,1.30
2023-01-19T04:07:19.917Z,1.40
2023-01-19T04:09:46.632Z,1.42
2023-01-19T04:12:13.471Z,1.10
2023-01-19T04:14:40.172Z,1.00
2023-01-19T04:17:06.897Z,1.30
2023-01-19T04:19:33.670Z,1.67
2023-01-19T04:22:00.779Z,2.03
2023-01-19T04:24:28.091Z,2.08
2023-01-19T04:26:54.781Z,1.70
2023-01-19T04:29:21.554Z,1.65
2023-01-19T04:31:48.401Z,1.30
2023-01-19T04:34:15.109Z,1.27
2023-01-19T04:36:41.971Z,1.40
2023-01-19T04:39:09.243Z,1.67
2023-01-19T04:41:36.022Z,1.48
2023-01-19T04:44:02.827Z,1.80
2023-01-19T04:46:29.685Z,1.33
2023-01-19T04:48:56.392Z,1.65
2023-01-19T04:51:23.201Z,1.77
2023-01-19T04:53:49.972Z,1.45
2023-01-19T04:56:16.677Z,1.83
2023-01-19T04:58:43.429Z,2.40
2023-01-19T05:01:10.292Z,1.85
2023-01-19T05:03:37.109Z,1.92
2023-01-19T05:06:04.049Z,2.03
2023-01-19T05:08:31.128Z,1.98
2023-01-19T05:10:58.211Z,1.65
2023-01-19T05:13:24.958Z,2.63
2023-01-19T05:15:51.726Z,1.60
2023-01-19T05:18:18.654Z,2.00
2023-01-19T05:20:45.524Z,1.70
2023-01-19T05:23:12.428Z,2.15
2023-01-19T05:25:39.195Z,1.67
2023-01-19T05:28:05.938Z,2.00
2023-01-19T05:30:32.715Z,2.00
2023-01-19T05:32:59.861Z,2.55
2023-01-19T05:35:35.695Z,1.75
2023-01-19T05:38:03.262Z,1.35
2023-01-19T05:40:30.105Z,2.15
2023-01-19T05:43:00.995Z,1.33
2023-01-19T05:45:28.575Z,1.52
2023-01-19T05:47:55.343Z,1.50
2023-01-19T05:50:22.005Z,1.55
2023-01-19T05:52:48.933Z,1.40
2023-01-19T05:55:16.678Z,1.70
2023-01-19T05:57:43.542Z,1.35
2023-01-19T06:00:11.103Z,1.50
2023-01-19T06:02:37.886Z,1.77
2023-01-19T06:05:05.067Z,1.73
2023-01-19T06:07:32.368Z,1.95
2023-01-19T06:09:59.341Z,1.80
2023-01-19T06:12:26.115Z,2.10
2023-01-19T06:14:52.948Z,2.08
2023-01-19T06:17:20.459Z,2.03
2023-01-19T06:19:47.114Z,2.55
2023-01-19T06:22:14.170Z,1.98
2023-01-19T06:24:40.901Z,1.65
2023-01-19T06:27:07.640Z,2.05
2023-01-19T06:29:34.407Z,2.15
2023-01-19T06:32:01.189Z,1.75
2023-01-19T06:34:29.079Z,2.35
2023-01-19T06:36:59.163Z,2.22
2023-01-19T06:39:25.956Z,2.20
2023-01-19T06:41:52.627Z,2.00
2023-01-19T06:44:19.499Z,2.13
2023-01-19T06:46:46.598Z,1.70
2023-01-19T06:49:13.275Z,1.80
2023-01-19T06:51:40.112Z,1.77
2023-01-19T06:54:07.017Z,1.85
2023-01-19T06:56:33.683Z,2.05
2023-01-19T06:59:00.850Z,2.00
2023-01-19T07:01:27.703Z,2.93
2023-01-19T07:03:54.614Z,2.40
2023-01-19T07:06:21.384Z,1.90
2023-01-19T07:08:48.126Z,2.10
2023-01-19T07:11:25.690Z,2.17
2023-01-19T07:13:59.053Z,1.77
2023-01-19T07:16:26.165Z,1.65
2023-01-19T07:18:53.188Z,1.60
2023-01-19T07:21:20.188Z,1.88
2023-01-19T07:23:54.099Z,1.83
2023-01-19T07:26:22.081Z,1.88
2023-01-19T07:28:49.048Z,2.38
2023-01-19T07:31:16.418Z,2.15
2023-01-19T07:33:43.396Z,2.05
2023-01-19T07:36:10.437Z,1.92
2023-01-19T07:38:37.086Z,1.92
2023-01-19T07:41:05.620Z,2.20
2023-01-19T07:43:32.888Z,1.90
2023-01-19T07:46:01.546Z,2.38
2023-01-19T07:48:29.249Z,1.83
2023-01-19T07:51:05.877Z,1.67
2023-01-19T07:53:33.093Z,2.03
2023-01-19T07:56:00.146Z,1.50
2023-01-19T07:58:27.662Z,2.70
2023-01-19T08:00:54.871Z,1.60
2023-01-19T08:03:21.605Z,1.60
2023-01-19T08:05:54.668Z,2.38
2023-01-19T08:10:52.352Z,2.58
2023-01-19T08:13:19.325Z,1.73
2023-01-19T08:15:50.646Z,2.08
2023-01-19T08:18:17.928Z,2.22
2023-01-19T08:20:44.696Z,1.88
2023-01-19T08:23:11.835Z,2.30
2023-01-19T08:25:45.321Z,2.20
2023-01-19T08:28:14.736Z,1.83
2023-01-19T08:30:44.385Z,1.60
2023-01-19T08:33:12.637Z,1.65
2023-01-19T08:35:47.520Z,1.92
2023-01-19T08:38:14.264Z,2.00
2023-01-19T08:40:42.158Z,2.97
2023-01-19T08:43:11.294Z,5.50
2023-01-19T08:45:42.563Z,1.63
2023-01-19T08:48:10.009Z,2.53
2023-01-19T08:50:36.753Z,2.72
2023-01-19T08:53:07.202Z,2.33
2023-01-19T08:55:36.216Z,2.03
2023-01-19T08:58:04.652Z,2.60
2023-01-19T09:00:33.702Z,2.10
2023-01-19T09:03:04.292Z,2.22
2023-01-19T09:05:35.789Z,2.42
2023-01-19T09:08:06.733Z,3.97
2023-01-19T09:10:36.257Z,2.40
2023-01-19T09:13:08.577Z,2.13
2023-01-19T09:15:37.847Z,2.20
2023-01-19T09:18:07.327Z,2.20
2023-01-19T09:20:36.271Z,2.38
2023-01-19T09:23:03.692Z,2.88
2023-01-19T09:25:31.319Z,2.40
2023-01-19T09:28:00.388Z,2.35
2023-01-19T09:30:28.283Z,2.50
2023-01-19T09:32:55.111Z,2.05
2023-01-19T09:35:21.777Z,3.00
2023-01-19T09:37:48.821Z,2.67
2023-01-19T09:40:18.787Z,1.90
2023-01-19T09:42:53.682Z,2.97
2023-01-19T09:45:31.493Z,2.25
2023-01-19T09:48:00.661Z,4.65
2023-01-19T09:50:41.469Z,2.92
2023-01-19T09:53:33.565Z,2.33
2023-01-19T09:56:00.233Z,2.55
2023-01-19T09:58:27.115Z,2.72
2023-01-19T10:01:03.855Z,3.00
2023-01-19T10:03:31.993Z,2.75
2023-01-19T10:06:03.748Z,2.45
2023-01-19T10:08:39.737Z,3.03
2023-01-19T10:11:22.900Z,3.63
2023-01-19T10:13:51.975Z,4.55
2023-01-19T10:17:12.999Z,2.92
2023-01-19T10:19:48.537Z,2.95
2023-01-19T10:22:23.683Z,2.75
2023-01-19T10:24:57.321Z,2.90
2023-01-19T10:27:30.077Z,2.90
2023-01-19T10:29:57.926Z,3.90
2023-01-19T10:32:32.120Z,3.42
2023-01-19T10:34:59.996Z,3.92
2023-01-19T10:37:32.626Z,3.45
2023-01-19T10:40:03.678Z,3.47
2023-01-19T10:42:30.942Z,3.53
2023-01-19T10:44:57.972Z,3.15
2023-01-19T10:47:32.689Z,3.45
2023-01-19T10:49:59.542Z,3.13
2023-01-19T10:52:36.976Z,2.47
2023-01-19T10:55:07.032Z,2.83
2023-01-19T10:57:40.952Z,3.20
2023-01-19T11:00:32.595Z,3.10
2023-01-19T11:03:00.234Z,3.17
2023-01-19T11:05:29.951Z,4.93
2023-01-19T11:07:57.025Z,2.92
2023-01-19T11:10:30.580Z,2.65
2023-01-19T11:13:02.005Z,2.10
2023-01-19T11:15:36.049Z,3.00
2023-01-19T11:18:07.449Z,2.63
2023-01-19T11:20:55.643Z,2.72
2023-01-19T11:23:42.025Z,2.50
2023-01-19T11:26:15.976Z,2.67
2023-01-19T11:28:48.051Z,2.40
2023-01-19T11:31:14.896Z,2.50
2023-01-19T11:33:50.800Z,3.03
2023-01-19T11:36:21.301Z,3.20
2023-01-19T11:38:54.409Z,2.85
2023-01-19T11:43:53.660Z,2.85
2023-01-19T11:46:23.250Z,3.25
2023-01-19T11:49:01.193Z,2.72
2023-01-19T11:51:37.646Z,2.70
2023-01-19T11:54:17.870Z,2.78
2023-01-19T11:56:47.607Z,3.03
2023-01-19T11:59:14.916Z,2.95
2023-01-19T12:01:49.468Z,2.63
2023-01-19T12:04:30.353Z,2.50
2023-01-19T12:07:00.313Z,2.40
2023-01-19T12:09:29.131Z,2.10
2023-01-19T12:12:04.509Z,2.88
2023-01-19T12:15:04.963Z,3.10
2023-01-19T12:17:48.721Z,2.83
2023-01-19T12:20:18.574Z,2.60
2023-01-19T12:22:59.704Z,3.20
2023-01-19T12:25:42.284Z,2.65
2023-01-19T12:28:14.373Z,2.58
2023-01-19T12:30:41.341Z,2.13
2023-01-19T12:33:26.537Z,2.42
2023-01-19T12:36:03.893Z,1.73
2023-01-19T12:38:42.364Z,2.85
2023-01-19T12:41:36.960Z,2.58
2023-01-19T12:44:12.866Z,2.25
2023-01-19T12:47:06.512Z,2.00
2023-01-19T12:49:39.238Z,1.88
2023-01-19T12:52:29.000Z,2.75
2023-01-19T12:55:15.865Z,2.17
2023-01-19T12:57:49.298Z,2.13
2023-01-19T13:00:21.895Z,1.83
2023-01-19T13:02:50.758Z,1.60
2023-01-19T13:05:45.271Z,2.40
2023-01-19T13:08:12.736Z,2.40
2023-01-19T13:11:09.743Z,2.37
2023-01-19T13:13:45.262Z,1.87
2023-01-19T13:16:21.688Z,1.73
2023-01-19T13:18:55.032Z,1.70
2023-01-19T13:21:35.359Z,2.60
2023-01-19T13:24:04.901Z,1.98
2023-01-19T13:26:33.210Z,2.10
2023-01-19T13:29:36.927Z,2.03
2023-01-19T13:34:51.823Z,2.53
2023-01-19T13:37:29.482Z,2.17
2023-01-19T13:39:57.085Z,2.60
2023-01-19T13:42:37.822Z,2.17
2023-01-19T13:45:30.102Z,2.20
2023-01-19T13:47:59.972Z,1.90
2023-01-19T13:50:29.349Z,1.93
2023-01-19T13:52:59.053Z,2.70
2023-01-19T13:55:28.294Z,1.80
2023-01-19T13:57:55.441Z,2.67
2023-01-19T14:00:25.196Z,1.75
2023-01-19T14:03:01.244Z,1.90
2023-01-19T14:05:33.480Z,2.77
2023-01-19T14:08:11.128Z,1.52
2023-01-19T14:10:56.765Z,1.70
2023-01-19T14:13:46.419Z,1.63
2023-01-19T14:16:17.150Z,1.60
2023-01-19T14:18:43.975Z,1.67
2023-01-19T14:21:13.872Z,1.40
2023-01-19T14:23:48.588Z,1.40
2023-01-19T14:26:46.744Z,1.20
2023-01-19T14:29:22.625Z,1.20
2023-01-19T14:32:09.284Z,1.83
2023-01-19T14:35:04.630Z,1.27
2023-01-19T14:37:34.937Z,1.47
2023-01-19T14:40:08.286Z,1.70
2023-01-19T14:42:42.425Z,1.43
2023-01-19T14:45:35.272Z,1.80
2023-01-19T14:48:17.811Z,1.38
2023-01-19T14:50:57.647Z,1.58
2023-01-19T14:53:30.219Z,1.90
2023-01-19T14:56:05.805Z,1.50
2023-01-19T14:58:35.216Z,2.30
2023-01-19T15:01:02.857Z,2.27
2023-01-19T15:03:44.768Z,2.10
2023-01-19T15:06:15.907Z,2.63
2023-01-19T15:08:44.424Z,2.33
2023-01-19T15:11:32.668Z,2.30
2023-01-19T15:14:00.038Z,1.73
2023-01-19T15:16:29.234Z,1.20
2023-01-19T15:18:56.145Z,1.90
2023-01-19T15:21:23.818Z,1.20
2023-01-19T15:23:50.631Z,1.77
2023-01-19T15:26:23.163Z,2.73
2023-01-19T15:28:50.780Z,2.00
2023-01-19T15:31:22.967Z,1.97
2023-01-19T15:33:50.110Z,1.40
2023-01-19T15:36:22.087Z,1.60
2023-01-19T15:38:51.261Z,1.80
2023-01-19T15:41:30.143Z,1.60
2023-01-19T15:43:57.573Z,2.53
2023-01-19T15:46:25.896Z,2.90
2023-01-19T15:48:54.085Z,2.57
2023-01-19T15:51:23.430Z,3.13
2023-01-19T15:53:50.410Z,2.27
2023-01-19T15:56:29.258Z,2.07
2023-01-19T15:58:58.007Z,1.58
2023-01-19T16:01:34.203Z,2.00
2023-01-19T16:04:07.897Z,3.10
2023-01-19T16:06:34.844Z,3.07
2023-01-19T16:09:02.022Z,3.03
2023-01-19T16:11:31.345Z,2.97
2023-01-19T16:13:58.866Z,2.33
2023-01-19T16:16:28.184Z,2.83
2023-01-19T16:18:56.175Z,3.00
2023-01-19T16:21:23.978Z,3.40
2023-01-19T16:23:55.743Z,4.95
2023-01-19T16:26:32.405Z,6.72
2023-01-19T16:29:01.303Z,5.23
2023-01-19T16:31:28.878Z,4.93
2023-01-19T16:33:55.806Z,3.57
2023-01-19T16:36:27.173Z,3.88
2023-01-19T16:38:54.591Z,4.17
2023-01-19T16:41:21.676Z,3.83
2023-01-19T16:43:55.926Z,3.58
2023-01-19T16:46:26.156Z,3.33
2023-01-19T16:48:53.236Z,3.78
2023-01-19T16:51:20.027Z,4.88
2023-01-19T16:53:49.087Z,4.30
2023-01-19T16:56:15.868Z,5.30
2023-01-19T16:58:42.750Z,4.63
2023-01-19T17:01:12.643Z,4.30
2023-01-19T17:03:39.876Z,3.70
2023-01-19T17:06:08.669Z,4.28
2023-01-19T17:08:36.608Z,4.80
2023-01-19T17:11:13.433Z,4.80
2023-01-19T17:13:40.285Z,5.45
2023-01-19T17:16:07.458Z,5.25
2023-01-19T17:18:37.912Z,6.47
2023-01-19T17:21:09.987Z,7.30
2023-01-19T17:23:37.635Z,6.93
2023-01-19T17:26:05.209Z,6.70
2023-01-19T17:28:32.025Z,7.60
2023-01-19T17:31:05.902Z,6.38
2023-01-19T17:33:33.486Z,5.40
2023-01-19T17:36:06.049Z,5.55
2023-01-19T17:38:32.794Z,5.40
2023-01-19T17:40:59.895Z,5.28
2023-01-19T17:43:26.812Z,5.88
2023-01-19T17:45:54.655Z,7.40
2023-01-19T17:48:21.738Z,6.65
2023-01-19T17:50:48.422Z,7.90
2023-01-19T17:53:15.085Z,5.68
2023-01-19T17:55:42.117Z,5.93
2023-01-19T17:58:08.772Z,5.53
2023-01-19T18:00:35.548Z,6.40
2023-01-19T18:03:02.909Z,8.73
2023-01-19T18:05:29.635Z,10.88
2023-01-19T18:07:56.298Z,8.10
2023-01-19T18:10:23.347Z,8.85
2023-01-19T18:12:50.091Z,7.18
2023-01-19T18:15:17.078Z,8.50
2023-01-19T18:17:43.982Z,11.20
2023-01-19T18:20:11.595Z,7.13
2023-01-19T18:22:38.495Z,7.43
2023-01-19T18:25:05.663Z,6.43
2023-01-19T18:27:32.413Z,6.65
2023-01-19T18:29:59.062Z,6.57
2023-01-19T18:32:27.210Z,8.15
2023-01-19T18:34:54.329Z,8.65
2023-01-19T18:37:21.082Z,9.65
2023-01-19T18:39:48.038Z,8.38
2023-01-19T18:42:14.929Z,8.00
2023-01-19T18:44:41.633Z,7.88
2023-01-19T18:47:08.403Z,7.20
2023-01-19T18:49:35.044Z,8.15
2023-01-19T18:52:03.903Z,10.27
2023-01-19T18:54:31.139Z,11.27
2023-01-19T18:56:57.833Z,10.80
2023-01-19T18:59:24.542Z,11.88
2023-01-19T19:01:51.643Z,10.75
2023-01-19T19:04:18.377Z,10.40
2023-01-19T19:06:45.044Z,13.98
2023-01-19T19:09:11.915Z,11.18
2023-01-19T19:11:38.556Z,8.75
2023-01-19T19:14:06.277Z,7.65
2023-01-19T19:16:36.201Z,7.43
2023-01-19T19:19:03.978Z,8.95
2023-01-19T19:21:30.602Z,11.77
2023-01-19T19:23:58.406Z,15.25
2023-01-19T19:26:28.071Z,53.60
2023-01-19T19:28:54.981Z,75.55
2023-01-19T19:31:23.389Z,45.35
2023-01-19T19:33:51.385Z,28.67
2023-01-19T19:36:20.042Z,9.90
2023-01-19T19:38:47.978Z,9.20
2023-01-19T19:41:21.764Z,8.57
2023-01-19T19:43:48.928Z,9.50
2023-01-19T19:46:19.981Z,9.25
2023-01-19T19:48:47.871Z,7.68
2023-01-19T19:51:18.976Z,7.97
2023-01-19T19:53:47.473Z,8.65
2023-01-19T19:56:15.498Z,8.70
2023-01-19T19:58:43.231Z,12.00
2023-01-19T20:01:15.168Z,11.02
2023-01-19T20:03:42.870Z,11.27
2023-01-19T20:06:15.467Z,11.15
2023-01-19T20:09:42.092Z,9.77
2023-01-19T20:12:08.846Z,9.18
2023-01-19T20:14:35.657Z,8.77
2023-01-19T20:17:02.798Z,11.07
2023-01-19T20:19:31.781Z,13.00
2023-01-19T20:22:15.549Z,10.18
2023-01-19T20:24:42.423Z,10.80
2023-01-19T20:27:09.071Z,11.20
2023-01-19T20:29:35.806Z,14.27
2023-01-19T20:32:02.726Z,16.17
2023-01-19T20:34:33.312Z,12.93
2023-01-19T20:37:02.872Z,11.25
2023-01-19T20:39:34.757Z,12.07
2023-01-19T20:42:01.857Z,9.88
2023-01-19T20:44:28.905Z,10.13
2023-01-19T20:46:56.407Z,10.00
2023-01-19T20:49:23.465Z,13.55
2023-01-19T20:51:52.159Z,13.98
2023-01-19T20:54:21.270Z,11.00
2023-01-19T20:56:48.313Z,11.02
2023-01-19T20:59:15.061Z,11.10
2023-01-19T21:01:42.592Z,10.82
2023-01-19T21:04:10.177Z,10.93
2023-01-19T21:06:38.099Z,11.93
2023-01-19T21:09:05.257Z,13.32
2023-01-19T21:11:32.055Z,14.10
2023-01-19T21:13:59.172Z,13.27
2023-01-19T21:16:27.952Z,13.15
2023-01-19T21:18:54.943Z,14.32
2023-01-19T21:21:30.864Z,13.35
2023-01-19T21:24:02.179Z,15.52
2023-01-19T21:26:33.644Z,13.52
2023-01-19T21:29:02.050Z,12.98
2023-01-19T21:31:29.120Z,12.07
2023-01-19T21:33:59.357Z,10.98
2023-01-19T21:36:26.123Z,10.43
2023-01-19T21:38:53.060Z,11.15
2023-01-19T21:41:20.365Z,9.95
2023-01-19T21:43:47.376Z,11.73
2023-01-19T21:48:46.218Z,10.32
2023-01-19T21:51:14.342Z,10.98
2023-01-19T21:53:41.349Z,10.13
2023-01-19T21:56:09.743Z,8.80
2023-01-19T21:58:36.996Z,10.52
2023-01-19T22:01:07.294Z,10.40
2023-01-19T22:03:34.085Z,10.70
2023-01-19T22:06:08.764Z,9.18
2023-01-19T22:08:35.747Z,10.70
2023-01-19T22:11:10.713Z,10.63
2023-01-19T22:13:40.993Z,11.95
2023-01-19T22:16:13.613Z,12.18
2023-01-19T22:18:45.807Z,11.07
2023-01-19T22:21:16.278Z,9.88
2023-01-19T22:23:43.607Z,8.88
2023-01-19T22:26:11.962Z,9.57
2023-01-19T22:28:39.127Z,10.32
2023-01-19T22:31:12.494Z,11.35
2023-01-19T22:33:40.011Z,13.80
2023-01-19T22:36:12.758Z,10.90
2023-01-19T22:38:40.161Z,16.17
2023-01-19T22:41:36.240Z,13.32
2023-01-19T22:44:05.800Z,14.90
2023-01-19T22:46:34.409Z,9.02
2023-01-19T22:49:01.641Z,9.88
2023-01-19T22:51:30.479Z,14.23
2023-01-19T22:53:57.335Z,11.70
2023-01-19T22:56:29.147Z,9.32
2023-01-19T22:58:56.881Z,8.30
2023-01-19T23:01:26.352Z,19.00
2023-01-19T23:03:54.782Z,8.13
2023-01-19T23:06:32.972Z,11.55
2023-01-19T23:09:03.597Z,7.13
2023-01-19T23:11:37.693Z,7.70
2023-01-19T23:14:07.398Z,7.90
2023-01-19T23:16:34.869Z,8.90
2023-01-19T23:19:03.115Z,7.38
2023-01-19T23:21:31.378Z,8.60
2023-01-19T23:24:03.270Z,7.60
2023-01-19T23:26:31.639Z,7.40
2023-01-19T23:29:01.289Z,6.57
2023-01-19T23:31:33.222Z,6.30
2023-01-19T23:34:04.021Z,7.50
2023-01-19T23:36:33.256Z,8.15
2023-01-19T23:39:03.716Z,9.05
2023-01-19T23:41:34.797Z,8.35
2023-01-19T23:44:02.197Z,8.65
2023-01-19T23:46:30.004Z,8.30
2023-01-19T23:48:57.019Z,8.73
2023-01-19T23:51:26.669Z,8.27
2023-01-19T23:53:53.430Z,8.77
2023-01-19T23:56:24.629Z,7.82
2023-01-19T23:58:57.491Z,9.50
